Last 6 Hours

AM-Roundhouse Btm 6950'

15 Minute Data | America/Los_Angeles
as of 9/1/26 8:52 PM PDT
Date & Time Temp (°F) RH (%) Dew Pt (°F) Wet Bulb (°F) Wind Dir (°) Wind Spd (mph) Wind Gust (mph) WindChill (°F) Barometric Press (inHg) Snow Depth (HS) (in) Latest Rain (In) Daily Rain (In) Daily Min Temp (°F) Daily Max Temp (°F)
9/1/26 - 2045 44.3 70 35.2 39.7 SSE | 149 7.6 16.6 37.9 30.04 2.7 0.00 0.00 44.3 60.4
9/1/26 - 2030 44.9 67 34.6 39.7 SE | 144 7.9 19.6 38.9 30.04 2.8 0.00 0.00 44.8 60.4
9/1/26 - 2015 45.2 69 35.5 40.2 SSE | 150 6.6 18.4 45.2 30.05 2.9 0.00 0.00 45.2 60.4
9/1/26 - 2000 45.6 66 35.0 40.2 SSE | 147 6.7 15.0 42.2 30.05 2.8 0.00 0.00 45.6 60.4
9/1/26 - 1945 46.4 63 34.5 40.3 SE | 140 6.1 12.6 41.9 30.05 2.8 0.00 0.00 46.4 60.4
9/1/26 - 1930 47.2 59 33.5 40.3 SE | 144 6.5 14.0 47.2 30.04 2.7 0.00 0.00 47.2 60.4
9/1/26 - 1915 47.9 58 33.6 40.7 SSE | 156 4.8 15.9 44.8 30.04 2.6 0.00 0.00 47.9 60.4
9/1/26 - 1900 48.5 55 33.2 40.8 SE | 133 5.1 14.4 48.5 30.05 2.7 0.00 0.00 48.5 60.4
9/1/26 - 1845 49.2 53 33.0 41.0 SE | 127 5.5 15.6 49.2 30.05 2.5 0.00 0.00 49.2 60.4
9/1/26 - 1830 50.1 50 32.2 41.2 SE | 132 4.9 17.0 46.9 30.04 2.4 0.00 0.00 49.9 60.4
9/1/26 - 1815 51.0 45 30.6 40.9 SSE | 147 5.7 19.0 49.3 30.05 2.6 0.00 0.00 49.9 60.4
9/1/26 - 1800 51.7 43 30.1 41.1 SE | 133 8.5 16.9 48.8 30.05 2.6 0.00 0.00 49.9 60.4
9/1/26 - 1745 52.3 42 30.0 41.3 SE | 130 7.3 15.6 52.3 30.04 2.5 0.00 0.00 49.9 60.4
9/1/26 - 1730 53.1 40 29.3 41.4 SE | 137 6.3 14.2 53.1 30.05 2.1 0.00 0.00 49.9 60.4
9/1/26 - 1715 53.5 39 29.4 41.6 SE | 143 7.2 16.0 53.5 30.05 2.8 0.00 0.00 49.9 60.4
9/1/26 - 1700 54.3 38 29.2 42.0 SE | 125 6.6 17.1 54.3 30.05 2.8 0.00 0.00 49.9 60.4
9/1/26 - 1645 54.3 38 29.5 42.0 SE | 134 8.5 20.6 54.3 30.05 2.7 0.00 0.00 49.9 60.4
9/1/26 - 1630 54.6 39 30.4 42.5 SE | 136 7.8 21.1 54.6 30.03 2.8 0.00 0.00 49.9 60.4
9/1/26 - 1615 55.2 38 30.4 42.8 SE | 132 7.3 17.8 55.2 30.06 2.8 0.00 0.00 49.9 60.4
9/1/26 - 1600 55.2 40 31.4 43.1 SE | 140 7.0 17.0 55.2 30.05 2.6 0.00 0.00 49.9 60.4
9/1/26 - 1545 55.8 37 30.1 42.9 SE | 146 7.6 18.9 55.8 30.06 2.8 0.00 0.00 49.9 60.4
9/1/26 - 1530 55.1 41 31.5 43.1 SE | 137 7.5 17.9 55.1 30.05 3.2 0.00 0.00 49.9 60.4
9/1/26 - 1515 55.2 41 31.7 43.3 SE | 129 6.5 17.2 55.2 30.06 2.8 0.00 0.00 49.9 60.4
9/1/26 - 1500 55.4 39 31.1 43.1 SE | 138 6.4 19.1 55.4 30.07 2.3 0.00 0.00 49.9 60.4
Max 55.8 70 35.5 43.3 - 8.5 21.1 55.8 30.07 3.2 0.00 0.00 49.9 60.4
Avg 51.1 49 31.9 41.5 - 6.8 17.0 49.8 30.05 2.7 0.00 - - -
Min 44.3 37 29.2 39.7 - 4.8 12.6 37.9 30.03 2.1 0.00 0.00 44.3 60.4
Total - - - - - - - - - - 0.00 - - -